Time;durP1;ratioP1;P1;durP2;ratioP2;P2;SDS_P1;SDS_P2;PMS_P1;PMS_P2;Temp;Humidity;BMP_temperature;BMP_pressure;BME280_temperature;BME280_humidity;BME280_pressure;Samples;Min_cycle;Max_cycle;Signal;HPM_P1;HPM_P2
2021/08/02 00:01:29;;;;;;;5.80;2.80;;;22.80;57.90;;;;;;5027272;28;20569;-46
2021/08/02 00:04:04;;;;;;;2.80;2.60;;;22.70;57.50;;;;;;5024242;28;20534;-44
2021/08/02 00:06:52;;;;;;;4.60;2.93;;;22.50;57.50;;;;;;5025853;28;20451;-45
2021/08/02 00:09:23;;;;;;;2.70;2.53;;;22.50;57.90;;;;;;5026532;28;20444;-45
2021/08/02 00:11:57;;;;;;;3.33;2.60;;;22.60;58.00;;;;;;5025942;28;21491;-48
2021/08/02 00:14:24;;;;;;;3.07;2.77;;;22.60;58.10;;;;;;5024944;28;20460;-46
2021/08/02 00:16:50;;;;;;;3.63;2.57;;;22.60;57.90;;;;;;5020189;28;20448;-44
2021/08/02 00:19:17;;;;;;;2.60;2.40;;;22.60;57.80;;;;;;5029421;28;20475;-47
2021/08/02 00:21:44;;;;;;;2.87;2.67;;;22.50;57.40;;;;;;5029344;28;20487;-45
2021/08/02 00:24:10;;;;;;;2.50;2.40;;;22.50;57.50;;;;;;5030343;28;20444;-45
2021/08/02 00:26:36;;;;;;;3.60;2.80;;;22.50;57.60;;;;;;5027098;28;20438;-46
2021/08/02 00:29:02;;;;;;;2.30;2.20;;;22.50;57.50;;;;;;5026014;28;20444;-48
2021/08/02 00:31:29;;;;;;;3.77;3.47;;;22.60;57.70;;;;;;5026965;28;20259;-45
2021/08/02 00:33:54;;;;;;;2.47;2.27;;;22.70;57.70;;;;;;5025743;28;20207;-49
2021/08/02 00:36:35;;;;;;;3.83;3.37;;;22.70;57.50;;;;;;5023184;28;20444;-44
2021/08/02 00:39:09;;;;;;;3.40;2.67;;;22.70;57.00;;;;;;5025863;28;20329;-45
2021/08/02 00:42:01;;;;;;;2.77;2.40;;;22.70;56.80;;;;;;5021142;28;20529;-45
2021/08/02 00:44:50;;;;;;;3.50;2.17;;;22.70;56.50;;;;;;5020935;28;20455;-44
2021/08/02 00:47:24;;;;;;;2.40;2.20;;;22.70;56.70;;;;;;5020995;28;20452;-46
2021/08/02 00:50:10;;;;;;;2.53;2.30;;;22.60;56.40;;;;;;5027029;28;20532;-46
2021/08/02 00:52:41;;;;;;;3.50;2.57;;;22.50;56.80;;;;;;5024284;28;20518;-46
2021/08/02 00:55:07;;;;;;;3.83;2.40;;;22.60;57.00;;;;;;5027808;28;20482;-45
2021/08/02 00:57:38;;;;;;;6.03;2.63;;;22.50;57.20;;;;;;5027389;28;20455;-45
2021/08/02 01:00:11;;;;;;;4.13;2.23;;;22.60;57.20;;;;;;5021961;28;20446;-45
2021/08/02 01:02:41;;;;;;;4.57;2.73;;;22.60;57.30;;;;;;5019486;28;20488;-45
2021/08/02 01:05:09;;;;;;;2.57;2.37;;;22.60;57.20;;;;;;5020525;28;20527;-47
2021/08/02 01:07:45;;;;;;;3.00;2.70;;;22.50;57.30;;;;;;5021796;28;20448;-44
2021/08/02 01:10:12;;;;;;;4.80;2.57;;;22.50;57.30;;;;;;5021399;28;20493;-49
2021/08/02 01:12:41;;;;;;;2.77;2.57;;;22.60;57.50;;;;;;5024608;28;20451;-44
2021/08/02 01:15:07;;;;;;;3.27;2.30;;;22.60;57.50;;;;;;5023697;28;20454;-45
2021/08/02 01:17:33;;;;;;;2.43;2.23;;;22.60;57.60;;;;;;5023683;28;20475;-44
2021/08/02 01:20:02;;;;;;;3.07;2.60;;;22.70;57.40;;;;;;5026305;28;20988;-45
2021/08/02 01:22:29;;;;;;;2.73;2.53;;;22.70;57.30;;;;;;5026334;28;20605;-44
2021/08/02 01:24:55;;;;;;;2.87;2.20;;;22.80;57.30;;;;;;5025345;28;20908;-45
2021/08/02 01:27:43;;;;;;;3.03;2.50;;;22.80;57.20;;;;;;5021629;28;20480;-44
2021/08/02 01:30:18;;;;;;;3.20;2.30;;;22.70;57.20;;;;;;5025443;28;20242;-44
2021/08/02 01:32:47;;;;;;;6.67;2.60;;;22.70;57.40;;;;;;5020114;28;20541;-44
2021/08/02 01:35:13;;;;;;;6.73;2.37;;;22.60;57.20;;;;;;5024899;28;20432;-45
2021/08/02 01:37:41;;;;;;;2.63;2.27;;;22.60;57.50;;;;;;5023045;28;21317;-46
2021/08/02 01:40:07;;;;;;;3.40;2.67;;;22.60;57.50;;;;;;5025721;28;20432;-46
2021/08/02 01:42:33;;;;;;;2.87;2.50;;;22.60;57.40;;;;;;5022703;28;20926;-44
2021/08/02 01:44:59;;;;;;;2.43;2.33;;;22.60;57.50;;;;;;5023785;28;20446;-45
2021/08/02 01:47:38;;;;;;;2.53;2.33;;;22.50;57.60;;;;;;5022731;28;20189;-46
2021/08/02 01:50:27;;;;;;;2.90;2.60;;;22.60;57.70;;;;;;5021694;28;20199;-46
2021/08/02 01:53:10;;;;;;;6.67;2.50;;;22.70;57.80;;;;;;5021797;28;20474;-45
2021/08/02 01:55:36;;;;;;;3.60;2.50;;;22.60;57.60;;;;;;5021926;28;20444;-44
2021/08/02 01:58:07;;;;;;;2.07;1.97;;;22.60;57.70;;;;;;5024128;28;20833;-46
2021/08/02 02:00:38;;;;;;;3.10;2.77;;;22.60;57.90;;;;;;5022500;28;20235;-45
2021/08/02 02:03:18;;;;;;;3.17;2.83;;;22.60;57.90;;;;;;5018940;28;20950;-44
2021/08/02 02:05:57;;;;;;;2.50;2.17;;;22.60;58.10;;;;;;5020768;28;20478;-46
2021/08/02 02:08:30;;;;;;;4.33;2.90;;;22.50;58.00;;;;;;5028227;28;20882;-46
2021/08/02 02:10:59;;;;;;;3.40;2.40;;;22.50;58.30;;;;;;5024275;28;20443;-45
2021/08/02 02:13:31;;;;;;;2.17;2.07;;;22.40;58.40;;;;;;5023647;28;20436;-45
2021/08/02 02:16:00;;;;;;;2.90;2.70;;;22.30;58.40;;;;;;5022675;28;20535;-45
2021/08/02 02:18:27;;;;;;;4.03;2.57;;;22.30;58.20;;;;;;5034093;28;20897;-45
2021/08/02 02:20:54;;;;;;;4.07;2.97;;;22.10;58.40;;;;;;5029417;28;21038;-44
2021/08/02 02:23:21;;;;;;;2.60;2.40;;;21.70;59.30;;;;;;5031587;28;20448;-47
2021/08/02 02:25:48;;;;;;;3.10;2.37;;;21.70;60.10;;;;;;5022976;28;20435;-45
2021/08/02 02:28:14;;;;;;;3.23;3.00;;;21.70;60.30;;;;;;5025849;28;20796;-47
2021/08/02 02:30:41;;;;;;;4.13;2.70;;;21.80;60.10;;;;;;5027046;28;20448;-47
2021/08/02 02:33:09;;;;;;;2.73;2.33;;;22.00;59.80;;;;;;5026732;28;21026;-47
2021/08/02 02:35:40;;;;;;;2.90;2.60;;;21.90;59.60;;;;;;5027970;28;20444;-44
2021/08/02 02:38:10;;;;;;;2.50;2.30;;;22.00;59.50;;;;;;5028167;28;20490;-45
2021/08/02 02:40:38;;;;;;;2.33;2.23;;;22.00;59.50;;;;;;5025706;28;20444;-44
2021/08/02 02:43:05;;;;;;;4.87;2.60;;;22.00;59.50;;;;;;5024089;28;20530;-45
2021/08/02 02:45:33;;;;;;;2.93;2.33;;;21.90;59.30;;;;;;5027034;28;20435;-45
2021/08/02 02:48:00;;;;;;;2.70;2.47;;;21.80;59.30;;;;;;5025352;28;20444;-44
2021/08/02 02:50:27;;;;;;;3.03;2.77;;;21.80;59.20;;;;;;5026845;28;20448;-45
2021/08/02 02:52:53;;;;;;;2.40;2.07;;;21.80;59.70;;;;;;5024572;28;20452;-45
2021/08/02 02:55:19;;;;;;;3.50;2.20;;;21.80;59.50;;;;;;5025885;28;20440;-45
2021/08/02 02:57:45;;;;;;;4.23;2.93;;;21.90;59.30;;;;;;5027849;28;20856;-46
2021/08/02 03:00:11;;;;;;;4.63;2.43;;;21.90;59.20;;;;;;5026521;28;20436;-46
2021/08/02 03:02:37;;;;;;;2.43;2.23;;;21.90;59.40;;;;;;5024338;28;20243;-44
2021/08/02 03:05:06;;;;;;;6.50;2.40;;;21.90;59.10;;;;;;5024974;28;20584;-45
2021/08/02 03:07:33;;;;;;;2.30;2.17;;;21.90;59.40;;;;;;5024339;28;20463;-46
2021/08/02 03:10:00;;;;;;;3.23;2.93;;;22.00;59.50;;;;;;5029224;28;20530;-46
2021/08/02 03:12:27;;;;;;;4.63;2.17;;;22.10;59.50;;;;;;5028214;28;20453;-46
2021/08/02 03:14:55;;;;;;;3.00;2.70;;;22.20;59.30;;;;;;5023368;28;20450;-48
2021/08/02 03:17:20;;;;;;;3.90;2.70;;;22.20;59.00;;;;;;5026862;28;20440;-45
2021/08/02 03:19:46;;;;;;;3.80;2.23;;;22.20;58.90;;;;;;5026030;28;20535;-45
2021/08/02 03:22:47;;;;;;;2.90;2.63;;;22.20;58.70;;;;;;5023949;28;20229;-47
2021/08/02 03:25:28;;;;;;;5.73;2.50;;;22.20;58.60;;;;;;5026574;28;21001;-44
2021/08/02 03:28:11;;;;;;;3.10;2.30;;;22.10;58.70;;;;;;5022642;28;20475;-45
2021/08/02 03:30:38;;;;;;;3.30;3.00;;;22.00;59.10;;;;;;5028065;28;20452;-45
2021/08/02 03:33:07;;;;;;;9.33;3.07;;;22.10;59.00;;;;;;5025365;28;20441;-46
2021/08/02 03:35:34;;;;;;;5.40;2.80;;;22.20;59.10;;;;;;5028376;28;20444;-45
2021/08/02 03:38:01;;;;;;;4.83;2.67;;;22.20;59.00;;;;;;5025788;28;20836;-45
2021/08/02 03:40:27;;;;;;;6.87;3.13;;;22.30;58.70;;;;;;5030689;28;20436;-45
2021/08/02 03:42:53;;;;;;;3.33;2.60;;;22.30;58.30;;;;;;5022661;28;20447;-45
2021/08/02 03:45:20;;;;;;;4.87;2.67;;;22.30;58.60;;;;;;5026551;28;20443;-46
2021/08/02 03:47:46;;;;;;;6.23;2.33;;;22.30;58.60;;;;;;5025890;28;20812;-44
2021/08/02 03:50:13;;;;;;;4.00;2.73;;;22.30;58.50;;;;;;5026504;28;20452;-45
2021/08/02 03:52:39;;;;;;;2.83;2.63;;;22.30;58.40;;;;;;5028925;28;20440;-45
2021/08/02 03:55:09;;;;;;;5.63;2.40;;;22.30;58.30;;;;;;5023941;28;22291;-44
2021/08/02 03:57:35;;;;;;;5.13;2.30;;;22.30;58.20;;;;;;5024199;28;20440;-44
2021/08/02 04:00:00;;;;;;;5.57;3.53;;;22.30;58.10;;;;;;5024737;28;20474;-44
2021/08/02 04:02:26;;;;;;;7.90;2.53;;;22.30;58.30;;;;;;5026028;28;20225;-44
2021/08/02 04:04:52;;;;;;;4.83;2.80;;;22.30;58.30;;;;;;5026785;28;20241;-45
2021/08/02 04:07:18;;;;;;;2.70;2.50;;;22.30;58.50;;;;;;5026685;28;20190;-45
2021/08/02 04:09:43;;;;;;;2.53;2.20;;;22.20;58.20;;;;;;5029820;28;20239;-45
2021/08/02 04:12:09;;;;;;;2.50;2.30;;;22.30;58.40;;;;;;5022466;28;20199;-45
2021/08/02 04:14:38;;;;;;;4.90;2.70;;;22.30;58.10;;;;;;5024618;28;21883;-44
2021/08/02 04:17:05;;;;;;;3.07;2.77;;;22.30;58.00;;;;;;5020773;28;20389;-50
2021/08/02 04:19:31;;;;;;;3.27;2.43;;;22.20;58.40;;;;;;5025103;28;20546;-45
2021/08/02 04:21:58;;;;;;;2.63;2.43;;;22.20;58.50;;;;;;5028082;28;20991;-45
2021/08/02 04:24:27;;;;;;;4.23;2.70;;;22.20;58.70;;;;;;5025019;28;21041;-48
2021/08/02 04:26:53;;;;;;;2.77;2.57;;;22.10;58.70;;;;;;5023300;28;20467;-44
2021/08/02 04:29:19;;;;;;;5.07;2.43;;;22.10;59.00;;;;;;5027325;28;21058;-44
2021/08/02 04:31:44;;;;;;;2.13;1.97;;;22.20;59.10;;;;;;5025975;28;20447;-44
2021/08/02 04:34:10;;;;;;;2.97;2.70;;;22.30;58.90;;;;;;5027928;28;21288;-47
2021/08/02 04:36:35;;;;;;;2.87;2.57;;;22.30;58.70;;;;;;5025254;28;20401;-46
2021/08/02 04:39:02;;;;;;;2.10;1.90;;;22.30;58.50;;;;;;5024835;28;20197;-45
2021/08/02 04:41:28;;;;;;;3.70;2.40;;;22.30;58.30;;;;;;5023251;28;20596;-45
2021/08/02 04:43:54;;;;;;;3.90;2.83;;;22.30;58.40;;;;;;5024355;28;20454;-45
2021/08/02 04:46:19;;;;;;;5.37;2.57;;;22.30;58.40;;;;;;5025708;28;20212;-46
2021/08/02 04:48:45;;;;;;;4.87;2.77;;;22.30;58.60;;;;;;5024341;28;20265;-45
2021/08/02 04:51:11;;;;;;;2.50;2.30;;;22.30;58.70;;;;;;5023238;28;20208;-45
2021/08/02 04:53:36;;;;;;;3.47;2.37;;;22.30;58.70;;;;;;5024226;28;20288;-51
2021/08/02 04:56:02;;;;;;;5.00;2.57;;;22.30;58.90;;;;;;5026878;28;20572;-48
2021/08/02 04:58:28;;;;;;;3.60;2.80;;;22.30;59.00;;;;;;5026710;28;20292;-45
2021/08/02 05:00:54;;;;;;;2.50;2.30;;;22.20;59.00;;;;;;5027092;28;20503;-45
2021/08/02 05:03:19;;;;;;;3.93;2.67;;;22.20;59.20;;;;;;5026014;28;20590;-45
2021/08/02 05:05:45;;;;;;;2.50;2.30;;;22.20;59.10;;;;;;5029086;28;20251;-45
2021/08/02 05:08:10;;;;;;;4.50;2.13;;;22.20;59.90;;;;;;5030943;28;20196;-46
2021/08/02 05:10:36;;;;;;;3.50;2.60;;;22.20;59.10;;;;;;5026580;28;20303;-46
2021/08/02 05:13:02;;;;;;;3.20;2.90;;;22.20;59.10;;;;;;5027269;28;20201;-45
2021/08/02 05:15:28;;;;;;;2.50;2.30;;;22.10;59.30;;;;;;5023400;28;20961;-47
2021/08/02 05:17:54;;;;;;;9.70;2.57;;;22.10;60.20;;;;;;5027907;28;20233;-44
2021/08/02 05:20:20;;;;;;;4.10;2.77;;;22.10;60.20;;;;;;5026135;28;20458;-45
2021/08/02 05:22:46;;;;;;;5.97;2.73;;;22.10;59.60;;;;;;5024000;28;20236;-48
2021/08/02 05:25:12;;;;;;;5.83;2.17;;;22.20;59.50;;;;;;5026835;28;20228;-45
2021/08/02 05:27:38;;;;;;;2.43;2.17;;;22.30;59.10;;;;;;5029532;28;20518;-45
2021/08/02 05:30:04;;;;;;;4.37;2.30;;;22.50;58.90;;;;;;5029233;28;20444;-45
2021/08/02 05:32:30;;;;;;;6.73;2.97;;;22.50;58.80;;;;;;5024526;28;20197;-45
2021/08/02 05:34:55;;;;;;;3.93;3.00;;;22.60;58.60;;;;;;5026962;28;20454;-45
2021/08/02 05:37:21;;;;;;;3.60;2.87;;;22.60;58.30;;;;;;5028436;28;20224;-45
2021/08/02 05:39:47;;;;;;;3.77;2.73;;;22.70;58.30;;;;;;5027838;28;20230;-44
2021/08/02 05:42:12;;;;;;;5.17;2.73;;;22.80;58.00;;;;;;5020597;28;20213;-45
2021/08/02 05:44:38;;;;;;;2.83;2.63;;;22.90;58.00;;;;;;5029788;28;20669;-47
2021/08/02 05:47:06;;;;;;;3.57;2.40;;;22.90;57.90;;;;;;5024346;28;20218;-44
2021/08/02 05:49:32;;;;;;;3.07;2.77;;;23.00;57.80;;;;;;5031290;28;20739;-45
2021/08/02 05:51:59;;;;;;;6.27;2.77;;;23.00;57.80;;;;;;5029038;28;20511;-45
2021/08/02 05:54:24;;;;;;;6.10;2.87;;;23.00;57.80;;;;;;5029960;28;20276;-45
2021/08/02 05:56:50;;;;;;;3.07;2.77;;;23.00;57.70;;;;;;5028724;28;21070;-44
2021/08/02 05:59:16;;;;;;;8.63;2.30;;;23.00;57.90;;;;;;5030047;28;20191;-45
2021/08/02 06:01:41;;;;;;;5.70;3.13;;;23.10;57.80;;;;;;5030032;28;20479;-46
2021/08/02 06:04:07;;;;;;;3.20;2.90;;;23.10;57.70;;;;;;5029131;28;20193;-46
2021/08/02 06:06:33;;;;;;;2.80;2.60;;;23.10;57.60;;;;;;5030669;28;20193;-45
2021/08/02 06:08:58;;;;;;;3.70;2.50;;;23.10;57.50;;;;;;5029448;28;20685;-45
2021/08/02 06:11:24;;;;;;;8.40;2.67;;;23.20;57.60;;;;;;5030423;28;20197;-46
2021/08/02 06:13:50;;;;;;;4.03;2.77;;;23.20;57.50;;;;;;5029238;28;20190;-45
2021/08/02 06:16:20;;;;;;;4.53;2.40;;;23.20;57.30;;;;;;5034002;28;20653;-45
2021/08/02 06:18:47;;;;;;;3.77;2.67;;;23.20;57.20;;;;;;5035634;28;20470;-45
2021/08/02 06:21:13;;;;;;;5.93;3.07;;;23.20;57.30;;;;;;5029473;28;20487;-46
2021/08/02 06:23:39;;;;;;;5.70;2.70;;;23.20;57.90;;;;;;5029964;28;20844;-45
2021/08/02 06:26:04;;;;;;;4.90;2.50;;;23.10;57.30;;;;;;5028411;28;20247;-45
2021/08/02 06:28:30;;;;;;;5.97;2.87;;;23.20;57.40;;;;;;5030388;28;20201;-45
2021/08/02 06:30:56;;;;;;;4.47;2.80;;;23.10;57.50;;;;;;5029326;28;20208;-44
2021/08/02 06:33:23;;;;;;;2.93;2.60;;;23.20;57.40;;;;;;5024953;28;20201;-45
2021/08/02 06:35:49;;;;;;;2.87;2.67;;;23.10;57.40;;;;;;5018261;28;20204;-46
2021/08/02 06:38:14;;;;;;;6.77;2.70;;;23.20;57.60;;;;;;5028959;28;20916;-45
2021/08/02 06:40:40;;;;;;;4.80;2.90;;;23.10;57.40;;;;;;5023619;28;20190;-46
2021/08/02 06:43:05;;;;;;;3.30;2.60;;;23.10;57.50;;;;;;5029222;28;20677;-45
2021/08/02 06:45:31;;;;;;;4.03;2.03;;;23.20;57.40;;;;;;5029792;28;20189;-45
2021/08/02 06:47:57;;;;;;;4.97;2.67;;;23.00;57.50;;;;;;5029119;28;20235;-45
2021/08/02 06:50:24;;;;;;;3.20;2.43;;;22.90;57.60;;;;;;5030355;28;20193;-44
2021/08/02 06:52:50;;;;;;;4.07;2.17;;;22.90;58.20;;;;;;5017924;28;20693;-45
2021/08/02 06:55:16;;;;;;;3.50;2.20;;;22.70;57.60;;;;;;5030370;28;20412;-44
2021/08/02 06:57:41;;;;;;;3.10;2.40;;;22.80;58.30;;;;;;5029238;28;21250;-45
2021/08/02 07:00:08;;;;;;;2.20;2.00;;;22.90;58.20;;;;;;5031091;28;20186;-46
2021/08/02 07:02:33;;;;;;;2.90;2.17;;;23.00;58.00;;;;;;5030664;28;20247;-44
2021/08/02 07:04:59;;;;;;;4.30;2.20;;;23.10;57.70;;;;;;5031791;28;20436;-44
2021/08/02 07:07:24;;;;;;;3.33;2.60;;;23.10;57.70;;;;;;5033138;28;20193;-45
2021/08/02 07:09:50;;;;;;;3.50;2.50;;;23.10;57.00;;;;;;5034316;28;20204;-45
2021/08/02 07:12:15;;;;;;;2.67;2.23;;;23.20;57.20;;;;;;5034040;28;20616;-44
2021/08/02 07:14:41;;;;;;;2.27;2.07;;;23.20;56.80;;;;;;5033137;28;20198;-46
2021/08/02 07:17:07;;;;;;;2.93;2.30;;;23.30;56.90;;;;;;5032598;28;20201;-45
2021/08/02 07:19:32;;;;;;;4.93;2.50;;;23.40;56.80;;;;;;5033843;28;20237;-44
2021/08/02 07:21:58;;;;;;;4.37;2.10;;;23.40;56.60;;;;;;5032681;28;20227;-45
2021/08/02 07:24:23;;;;;;;3.87;2.00;;;23.40;56.60;;;;;;5030040;28;20720;-45
2021/08/02 07:26:49;;;;;;;3.50;2.00;;;23.50;56.50;;;;;;5032934;28;20204;-45
2021/08/02 07:29:14;;;;;;;3.60;2.43;;;23.30;56.50;;;;;;5032562;28;20230;-45
2021/08/02 07:31:40;;;;;;;3.00;2.53;;;23.30;56.80;;;;;;5030300;28;20243;-45
2021/08/02 07:34:05;;;;;;;2.17;1.97;;;23.50;56.80;;;;;;5033067;28;20216;-45
2021/08/02 07:36:32;;;;;;;5.10;2.40;;;23.50;56.20;;;;;;5032570;28;20196;-46
2021/08/02 07:38:57;;;;;;;2.10;1.90;;;23.50;56.40;;;;;;5032427;28;20208;-47
2021/08/02 07:41:23;;;;;;;4.60;2.37;;;23.50;56.40;;;;;;5032358;28;20480;-44
2021/08/02 07:43:49;;;;;;;2.60;2.07;;;23.40;56.20;;;;;;5035074;28;20193;-44
2021/08/02 07:46:16;;;;;;;5.23;2.37;;;23.30;56.30;;;;;;5032459;28;20712;-47
2021/08/02 07:48:41;;;;;;;2.33;2.00;;;23.40;57.30;;;;;;5032291;28;20265;-44
2021/08/02 07:51:07;;;;;;;2.27;2.07;;;23.50;56.70;;;;;;5031216;28;20539;-44
2021/08/02 07:53:32;;;;;;;4.20;2.90;;;23.60;56.50;;;;;;5032139;28;20259;-44
2021/08/02 07:55:58;;;;;;;4.27;2.00;;;23.50;55.80;;;;;;5031226;28;20224;-47
2021/08/02 07:58:23;;;;;;;4.50;2.47;;;23.50;56.10;;;;;;5033237;28;20212;-44
2021/08/02 08:00:49;;;;;;;2.60;1.97;;;23.30;56.20;;;;;;5030736;28;20201;-45
2021/08/02 08:03:16;;;;;;;3.93;2.20;;;23.20;56.30;;;;;;5031798;28;20197;-47
2021/08/02 08:05:41;;;;;;;2.80;2.30;;;23.30;56.00;;;;;;5032836;28;20201;-45
2021/08/02 08:08:07;;;;;;;2.47;2.20;;;23.00;56.10;;;;;;5032710;28;20440;-45
2021/08/02 08:10:33;;;;;;;2.03;1.90;;;23.20;56.80;;;;;;5031818;28;20219;-45
2021/08/02 08:12:59;;;;;;;2.43;2.23;;;23.50;56.10;;;;;;5030430;28;20197;-46
2021/08/02 08:15:25;;;;;;;2.03;1.90;;;23.70;55.50;;;;;;5029116;28;20424;-47
2021/08/02 08:17:52;;;;;;;3.40;2.60;;;23.80;55.10;;;;;;5030012;28;20689;-48
2021/08/02 08:20:20;;;;;;;4.07;2.13;;;23.90;55.10;;;;;;5046064;28;20482;-47
2021/08/02 08:22:46;;;;;;;2.40;2.10;;;24.00;54.40;;;;;;5032044;28;20841;-49
2021/08/02 08:25:12;;;;;;;2.93;2.07;;;24.20;54.70;;;;;;5031170;28;20524;-46
2021/08/02 08:27:38;;;;;;;4.40;2.27;;;24.40;54.80;;;;;;5030867;28;20204;-49
2021/08/02 08:30:05;;;;;;;2.50;2.30;;;24.50;54.90;;;;;;5032486;28;20440;-46
2021/08/02 08:32:31;;;;;;;2.37;2.13;;;24.50;54.00;;;;;;5031611;28;20197;-47
2021/08/02 08:34:57;;;;;;;2.40;2.20;;;24.40;54.70;;;;;;5031784;28;20436;-47
2021/08/02 08:37:22;;;;;;;2.40;2.20;;;24.40;54.30;;;;;;5033721;28;20196;-45
2021/08/02 08:39:48;;;;;;;2.07;1.87;;;24.60;53.70;;;;;;5024973;28;20216;-49
2021/08/02 08:42:14;;;;;;;4.60;2.63;;;24.50;53.20;;;;;;5030064;28;20224;-46
2021/08/02 08:44:41;;;;;;;3.90;2.10;;;24.60;52.90;;;;;;5031048;28;20272;-46
2021/08/02 08:47:06;;;;;;;3.20;1.67;;;24.70;51.90;;;;;;5031764;28;20439;-46
2021/08/02 08:49:34;;;;;;;2.73;1.57;;;24.80;51.60;;;;;;5031659;28;20440;-48
2021/08/02 08:52:00;;;;;;;2.00;1.80;;;24.90;51.40;;;;;;5031491;28;20212;-46
2021/08/02 08:54:30;;;;;;;3.80;2.00;;;25.10;51.50;;;;;;5028326;28;22283;-46
2021/08/02 08:56:55;;;;;;;2.37;1.90;;;25.20;50.70;;;;;;5029607;28;20531;-47
2021/08/02 08:59:21;;;;;;;2.87;1.70;;;25.40;51.30;;;;;;5030739;28;20598;-46
2021/08/02 09:01:47;;;;;;;2.70;1.70;;;25.20;50.90;;;;;;5024091;28;20221;-46
2021/08/02 09:04:12;;;;;;;4.73;2.43;;;25.30;50.70;;;;;;5030298;28;20311;-44
2021/08/02 09:06:48;;;;;;;2.23;1.60;;;25.60;50.80;;;;;;5028781;28;20197;-44
2021/08/02 09:09:31;;;;;;;2.67;1.93;;;25.70;50.30;;;;;;5030028;28;20635;-47
2021/08/02 09:12:04;;;;;;;2.50;1.77;;;25.80;49.70;;;;;;5027063;28;20985;-45
2021/08/02 09:14:29;;;;;;;6.00;1.90;;;25.90;49.30;;;;;;5025636;28;21010;-50
2021/08/02 09:16:57;;;;;;;2.07;1.83;;;26.00;50.00;;;;;;5026753;28;20511;-45
2021/08/02 09:19:23;;;;;;;3.07;2.00;;;26.30;50.60;;;;;;5031016;28;20244;-48
2021/08/02 09:21:51;;;;;;;1.73;1.63;;;26.50;50.20;;;;;;5033410;28;20491;-48
2021/08/02 09:24:28;;;;;;;1.93;1.77;;;26.50;49.00;;;;;;5030935;28;20226;-46
2021/08/02 09:26:54;;;;;;;2.90;1.70;;;26.70;48.70;;;;;;5028480;28;20455;-46
2021/08/02 09:29:27;;;;;;;2.07;1.70;;;26.90;47.80;;;;;;5029066;28;20487;-47
2021/08/02 09:31:52;;;;;;;3.07;1.90;;;26.80;47.40;;;;;;5022479;28;20264;-48
2021/08/02 09:34:20;;;;;;;2.63;1.70;;;26.90;47.70;;;;;;5025232;28;20452;-48
2021/08/02 09:36:47;;;;;;;1.83;1.53;;;27.10;47.10;;;;;;5023675;28;20208;-49
2021/08/02 09:39:15;;;;;;;5.23;1.63;;;27.00;45.70;;;;;;5027198;28;20428;-47
2021/08/02 09:41:44;;;;;;;3.10;2.00;;;27.10;46.00;;;;;;5029701;28;20492;-46
2021/08/02 09:44:23;;;;;;;3.20;2.30;;;27.20;46.30;;;;;;5030768;28;20435;-48
2021/08/02 09:47:01;;;;;;;1.67;1.57;;;27.30;46.10;;;;;;5031763;28;20471;-48
2021/08/02 09:49:31;;;;;;;1.90;1.80;;;27.50;45.00;;;;;;5030074;28;20472;-46
2021/08/02 09:51:57;;;;;;;3.40;1.90;;;27.60;45.40;;;;;;5028347;28;20534;-47
2021/08/02 09:54:27;;;;;;;2.40;2.20;;;27.90;44.80;;;;;;5030575;28;20439;-47
2021/08/02 09:56:53;;;;;;;2.03;1.43;;;28.20;43.80;;;;;;5028998;28;20464;-47
2021/08/02 09:59:19;;;;;;;5.10;2.20;;;28.30;42.20;;;;;;5030991;28;20463;-46
2021/08/02 10:01:52;;;;;;;1.90;1.53;;;28.40;42.50;;;;;;5029392;28;20482;-47
2021/08/02 10:04:18;;;;;;;1.63;1.50;;;28.50;44.60;;;;;;5027465;28;20795;-47
2021/08/02 10:06:44;;;;;;;2.73;1.70;;;28.60;41.70;;;;;;5028098;28;20440;-47
2021/08/02 10:09:12;;;;;;;2.10;1.90;;;28.60;41.90;;;;;;5019171;28;20216;-46
2021/08/02 10:11:37;;;;;;;2.00;1.90;;;28.50;41.30;;;;;;5027015;28;20475;-47
2021/08/02 10:14:03;;;;;;;1.53;1.43;;;28.50;41.40;;;;;;5029947;28;20468;-46
2021/08/02 10:16:30;;;;;;;2.57;1.80;;;28.40;41.60;;;;;;5019897;28;20193;-48
2021/08/02 10:19:05;;;;;;;1.70;1.30;;;28.30;42.30;;;;;;5031697;28;20232;-46
2021/08/02 10:21:45;;;;;;;3.90;1.63;;;28.10;42.30;;;;;;5027665;28;20986;-46
2021/08/02 10:24:13;;;;;;;3.57;1.90;;;27.90;42.80;;;;;;5024590;28;20439;-46
2021/08/02 10:26:40;;;;;;;2.73;1.63;;;27.90;42.80;;;;;;5024319;28;20440;-46
2021/08/02 10:29:09;;;;;;;1.90;1.80;;;27.80;42.50;;;;;;5028478;28;20435;-44
2021/08/02 10:31:53;;;;;;;3.13;1.60;;;27.70;43.10;;;;;;5029436;28;20815;-47
2021/08/02 10:34:23;;;;;;;3.53;1.80;;;27.70;43.60;;;;;;5024647;28;20503;-47
2021/08/02 10:37:01;;;;;;;3.00;2.17;;;27.70;43.60;;;;;;5029374;28;20943;-48
2021/08/02 10:39:29;;;;;;;4.10;2.40;;;27.70;46.30;;;;;;5034958;28;20523;-50
2021/08/02 10:42:18;;;;;;;3.13;2.17;;;27.20;50.80;;;;;;5032329;28;20483;-48
2021/08/02 10:44:54;;;;;;;4.77;2.97;;;26.90;50.70;;;;;;5030161;28;20822;-49
2021/08/02 10:47:20;;;;;;;6.30;2.73;;;26.70;52.70;;;;;;5031997;28;20455;-47
2021/08/02 10:49:50;;;;;;;3.13;2.60;;;26.20;53.80;;;;;;5039935;28;20525;-47
2021/08/02 10:52:31;;;;;;;3.30;2.10;;;25.70;54.50;;;;;;5034473;28;20440;-46
2021/08/02 10:54:57;;;;;;;5.70;2.90;;;25.40;54.00;;;;;;5033678;28;20745;-46
2021/08/02 10:57:23;;;;;;;2.50;2.10;;;25.20;54.60;;;;;;5022515;28;20468;-46
2021/08/02 10:59:49;;;;;;;4.47;2.43;;;25.00;55.50;;;;;;5033917;28;20460;-48
2021/08/02 11:02:15;;;;;;;2.33;2.00;;;24.80;55.80;;;;;;5034463;28;20304;-46
2021/08/02 11:04:42;;;;;;;3.70;2.27;;;24.60;56.30;;;;;;5031540;28;20194;-47
2021/08/02 11:07:17;;;;;;;2.30;2.20;;;24.60;56.90;;;;;;5032233;28;20440;-47
2021/08/02 11:09:52;;;;;;;3.87;2.70;;;24.60;57.00;;;;;;5036803;28;20902;-50
2021/08/02 11:12:18;;;;;;;5.83;2.60;;;24.60;57.40;;;;;;5028599;28;20424;-48
2021/08/02 11:14:54;;;;;;;4.60;2.37;;;24.70;57.90;;;;;;5030833;28;20927;-47
2021/08/02 11:17:22;;;;;;;3.33;1.70;;;24.50;57.10;;;;;;5030023;28;20871;-48
2021/08/02 11:20:02;;;;;;;2.37;1.90;;;24.30;57.00;;;;;;5031009;28;20908;-48
2021/08/02 11:22:27;;;;;;;2.17;1.93;;;24.30;57.40;;;;;;5031481;28;20501;-48
2021/08/02 11:24:55;;;;;;;3.83;2.30;;;24.20;57.90;;;;;;5032326;28;20428;-46
2021/08/02 11:27:21;;;;;;;4.40;2.40;;;24.20;58.00;;;;;;5031606;28;20292;-49
2021/08/02 11:29:53;;;;;;;2.60;1.70;;;24.20;57.90;;;;;;5033115;28;20432;-48
2021/08/02 11:32:20;;;;;;;3.90;2.43;;;24.30;58.00;;;;;;5029228;28;20436;-47
2021/08/02 11:34:52;;;;;;;3.23;1.87;;;24.30;58.90;;;;;;5031516;28;20521;-46
2021/08/02 11:37:23;;;;;;;3.70;2.17;;;24.30;58.70;;;;;;5032232;28;20443;-48
2021/08/02 11:40:03;;;;;;;2.40;2.10;;;24.30;58.10;;;;;;5032723;28;20436;-47
2021/08/02 11:42:31;;;;;;;2.50;2.27;;;24.20;57.60;;;;;;5030893;28;20501;-46
2021/08/02 11:44:58;;;;;;;3.23;1.90;;;24.20;57.60;;;;;;5029817;28;20829;-47
2021/08/02 11:47:27;;;;;;;2.60;2.30;;;24.10;57.50;;;;;;5031529;28;20513;-46
2021/08/02 11:49:55;;;;;;;5.67;2.57;;;24.00;58.30;;;;;;5031131;28;20446;-46
2021/08/02 11:52:23;;;;;;;3.57;1.90;;;23.70;59.30;;;;;;5031068;28;20444;-46
2021/08/02 11:55:08;;;;;;;1.70;1.60;;;23.20;59.30;;;;;;5032649;28;20454;-48
2021/08/02 11:57:35;;;;;;;1.70;1.60;;;23.30;59.40;;;;;;5032218;28;21146;-51
2021/08/02 12:00:16;;;;;;;2.30;2.17;;;23.30;60.40;;;;;;5032915;28;20494;-46
2021/08/02 12:02:44;;;;;;;1.77;1.30;;;23.60;60.70;;;;;;5030847;28;20549;-46
2021/08/02 12:05:27;;;;;;;1.70;1.60;;;24.00;60.10;;;;;;5032196;28;20472;-46
2021/08/02 12:07:53;;;;;;;2.43;1.80;;;24.40;58.00;;;;;;5031469;28;20455;-47
2021/08/02 12:10:28;;;;;;;1.57;1.47;;;24.60;58.30;;;;;;5031425;28;20464;-47
2021/08/02 12:12:57;;;;;;;1.70;1.60;;;24.90;57.50;;;;;;5026924;28;20444;-46
2021/08/02 12:15:23;;;;;;;1.77;1.63;;;24.70;56.90;;;;;;5027811;28;20435;-46
2021/08/02 12:17:50;;;;;;;2.73;1.63;;;24.60;58.20;;;;;;5031076;28;20475;-46
2021/08/02 12:20:38;;;;;;;1.73;1.63;;;24.70;58.00;;;;;;5028061;28;20455;-48
2021/08/02 12:23:07;;;;;;;1.83;1.50;;;24.80;60.00;;;;;;5027017;28;20476;-50
2021/08/02 12:25:43;;;;;;;2.07;1.97;;;24.90;59.10;;;;;;5030793;28;20436;-48
2021/08/02 12:28:09;;;;;;;3.10;1.97;;;25.00;58.40;;;;;;5028545;28;20835;-48
2021/08/02 12:30:36;;;;;;;3.40;1.93;;;25.00;58.00;;;;;;5031647;28;20444;-47
2021/08/02 12:33:03;;;;;;;1.83;1.70;;;25.00;57.00;;;;;;5032410;28;20439;-49
2021/08/02 12:35:29;;;;;;;1.90;1.80;;;25.00;56.50;;;;;;5030537;28;20475;-49
2021/08/02 12:37:58;;;;;;;1.90;1.60;;;25.00;55.60;;;;;;5034177;28;20462;-47
2021/08/02 12:40:23;;;;;;;2.63;1.80;;;25.00;57.00;;;;;;5029232;28;20621;-49
2021/08/02 12:42:49;;;;;;;2.43;2.00;;;25.00;57.10;;;;;;5030096;28;20484;-47
2021/08/02 12:45:16;;;;;;;2.10;2.00;;;25.10;57.20;;;;;;5030196;28;20528;-47
2021/08/02 12:47:43;;;;;;;3.27;2.90;;;25.10;57.30;;;;;;5036571;28;20201;-47
2021/08/02 12:50:11;;;;;;;2.40;2.20;;;25.20;57.90;;;;;;5034977;28;20448;-48
2021/08/02 12:52:37;;;;;;;4.50;3.60;;;25.20;58.70;;;;;;5031156;28;20462;-46
2021/08/02 12:55:04;;;;;;;3.00;2.43;;;25.20;57.90;;;;;;5031161;28;20938;-47